createdAt,value
2019-03-03T00:01:41.564Z,13.83
2019-03-03T00:04:10.818Z,12.95
2019-03-03T00:06:40.004Z,13.90
2019-03-03T00:09:09.258Z,14.13
2019-03-03T00:11:38.482Z,16.32
2019-03-03T00:14:07.666Z,13.00
2019-03-03T00:16:36.944Z,14.28
2019-03-03T00:19:06.122Z,11.85
2019-03-03T00:21:35.316Z,10.35
2019-03-03T00:24:04.653Z,10.58
2019-03-03T00:26:33.873Z,9.88
2019-03-03T00:29:03.276Z,9.58
2019-03-03T00:31:37.473Z,8.93
2019-03-03T00:34:06.662Z,11.03
2019-03-03T00:36:53.580Z,9.85
2019-03-03T00:39:41.083Z,10.80
2019-03-03T00:42:32.771Z,10.18
2019-03-03T00:45:19.740Z,9.98
2019-03-03T00:48:06.693Z,10.50
2019-03-03T00:50:53.579Z,9.93
2019-03-03T00:53:44.278Z,9.58
2019-03-03T00:56:28.088Z,9.35
2019-03-03T00:59:23.751Z,9.08
2019-03-03T01:01:58.049Z,7.75
2019-03-03T01:04:55.569Z,7.50
2019-03-03T01:07:43.704Z,7.80
2019-03-03T01:10:31.873Z,8.30
2019-03-03T01:13:20.019Z,8.43
2019-03-03T01:16:06.391Z,7.60
2019-03-03T01:19:00.726Z,7.40
2019-03-03T01:21:48.912Z,7.97
2019-03-03T01:24:43.327Z,6.85
2019-03-03T01:27:12.554Z,8.48
2019-03-03T01:29:41.757Z,7.45
2019-03-03T01:32:10.960Z,8.90
2019-03-03T01:34:40.194Z,8.08
2019-03-03T01:37:09.390Z,8.23
2019-03-03T01:39:38.599Z,7.20
2019-03-03T01:42:07.848Z,8.35
2019-03-03T01:44:37.047Z,8.80
2019-03-03T01:47:06.246Z,8.70
2019-03-03T01:49:35.445Z,9.05
2019-03-03T01:52:04.672Z,8.58
2019-03-03T01:54:33.853Z,8.03
2019-03-03T01:57:03.083Z,9.88
2019-03-03T01:59:32.271Z,9.10
2019-03-03T02:02:01.450Z,9.45
2019-03-03T02:04:30.686Z,9.08
2019-03-03T02:06:59.889Z,10.13
2019-03-03T02:09:29.483Z,10.90
2019-03-03T02:11:58.697Z,11.73
2019-03-03T02:14:27.901Z,10.98
2019-03-03T02:16:57.075Z,10.55
2019-03-03T02:19:26.285Z,11.08
2019-03-03T02:21:55.483Z,9.85
2019-03-03T02:24:24.681Z,10.55
2019-03-03T02:26:53.888Z,11.18
2019-03-03T02:29:23.097Z,11.75
2019-03-03T02:31:52.281Z,10.35
2019-03-03T02:34:21.513Z,10.68
2019-03-03T02:36:50.842Z,9.45
2019-03-03T02:39:20.298Z,9.83
2019-03-03T02:41:49.594Z,9.10
2019-03-03T02:44:18.780Z,8.48
2019-03-03T02:46:47.988Z,8.88
2019-03-03T02:49:17.201Z,6.75
2019-03-03T02:51:46.397Z,6.90
2019-03-03T02:54:15.589Z,6.78
2019-03-03T02:56:44.837Z,6.00
2019-03-03T02:59:14.042Z,6.22
2019-03-03T03:01:56.197Z,5.97
2019-03-03T03:04:26.479Z,5.42
2019-03-03T03:07:12.562Z,5.12
2019-03-03T03:10:00.697Z,5.05
2019-03-03T03:13:07.149Z,4.90
2019-03-03T03:15:47.572Z,4.45
2019-03-03T03:18:29.880Z,4.20
2019-03-03T03:21:04.289Z,3.87
2019-03-03T03:23:52.484Z,4.10
2019-03-03T03:26:28.481Z,4.08
2019-03-03T03:29:15.388Z,4.28
2019-03-03T03:32:03.578Z,4.45
2019-03-03T03:34:57.858Z,3.75
2019-03-03T03:37:38.722Z,3.65
2019-03-03T03:40:37.917Z,3.70
2019-03-03T03:43:14.087Z,2.98
2019-03-03T03:46:07.448Z,3.70
2019-03-03T03:48:43.693Z,3.45
2019-03-03T03:51:28.674Z,3.62
2019-03-03T03:54:06.446Z,3.05
2019-03-03T03:56:54.700Z,3.22
2019-03-03T03:59:29.729Z,3.40
2019-03-03T04:02:16.364Z,3.20
2019-03-03T04:04:52.593Z,3.17
2019-03-03T04:07:28.998Z,3.02
2019-03-03T04:10:09.625Z,3.10
2019-03-03T04:13:00.563Z,3.35
2019-03-03T04:15:49.704Z,2.92
2019-03-03T04:18:37.061Z,2.80
2019-03-03T04:21:16.869Z,2.90
2019-03-03T04:24:07.863Z,3.47
2019-03-03T04:26:54.738Z,2.85
2019-03-03T04:29:49.103Z,2.95
2019-03-03T04:32:33.519Z,2.90
2019-03-03T04:35:21.672Z,3.30
2019-03-03T04:38:07.359Z,2.72
2019-03-03T04:40:46.605Z,3.02
2019-03-03T04:43:40.611Z,2.67
2019-03-03T04:46:20.044Z,3.17
2019-03-03T04:49:05.689Z,3.10
2019-03-03T04:51:56.775Z,3.10
2019-03-03T04:55:03.338Z,3.22
2019-03-03T04:58:03.751Z,3.30
2019-03-03T05:01:04.087Z,2.85
2019-03-03T05:03:42.274Z,3.40
2019-03-03T05:06:20.668Z,3.33
2019-03-03T05:08:57.250Z,3.30
2019-03-03T05:12:19.493Z,3.27
2019-03-03T05:14:49.292Z,2.58
2019-03-03T05:17:25.486Z,3.37
2019-03-03T05:19:57.842Z,2.95
2019-03-03T05:22:27.038Z,2.95
2019-03-03T05:24:56.230Z,3.12
2019-03-03T05:27:25.433Z,3.20
2019-03-03T05:29:54.615Z,3.02
2019-03-03T05:32:23.834Z,3.60
2019-03-03T05:34:53.038Z,3.55
2019-03-03T05:37:22.234Z,3.70
2019-03-03T05:39:51.555Z,2.83
2019-03-03T05:42:20.778Z,3.40
2019-03-03T05:44:49.967Z,3.52
2019-03-03T05:47:19.153Z,3.80
2019-03-03T05:49:48.355Z,3.10
2019-03-03T05:52:17.565Z,3.42
2019-03-03T05:54:46.773Z,3.67
2019-03-03T05:57:15.996Z,3.62
2019-03-03T05:59:45.229Z,3.52
2019-03-03T06:02:14.473Z,3.10
2019-03-03T06:04:43.677Z,3.50
2019-03-03T06:07:12.858Z,3.98
2019-03-03T06:09:43.637Z,3.27
2019-03-03T06:12:12.853Z,3.58
2019-03-03T06:14:42.045Z,4.08
2019-03-03T06:17:11.240Z,3.87
2019-03-03T06:19:40.464Z,3.77
2019-03-03T06:22:09.675Z,3.47
2019-03-03T06:24:38.854Z,2.70
2019-03-03T06:27:08.098Z,3.22
2019-03-03T06:29:37.284Z,3.98
2019-03-03T06:32:06.494Z,3.12
2019-03-03T06:34:35.712Z,2.72
2019-03-03T06:37:04.932Z,3.58
2019-03-03T06:39:34.134Z,3.17
2019-03-03T06:42:03.394Z,3.40
2019-03-03T06:44:32.547Z,3.27
2019-03-03T06:47:01.755Z,3.72
2019-03-03T06:49:30.977Z,3.60
2019-03-03T06:52:00.186Z,3.40
2019-03-03T06:54:29.398Z,3.83
2019-03-03T06:56:58.614Z,3.08
2019-03-03T06:59:27.837Z,3.80
2019-03-03T07:01:57.058Z,3.80
2019-03-03T07:04:26.295Z,3.42
2019-03-03T07:06:55.505Z,3.70
2019-03-03T07:09:24.737Z,3.20
2019-03-03T07:11:53.987Z,3.60
2019-03-03T07:14:23.173Z,3.60
2019-03-03T07:16:52.395Z,3.55
2019-03-03T07:19:21.621Z,3.80
2019-03-03T07:21:50.837Z,3.85
2019-03-03T07:24:20.102Z,3.77
2019-03-03T07:26:49.597Z,3.30
2019-03-03T07:29:18.816Z,3.33
2019-03-03T07:31:48.033Z,3.62
2019-03-03T07:34:17.273Z,3.15
2019-03-03T07:36:46.488Z,3.52
2019-03-03T07:39:17.822Z,3.98
2019-03-03T07:41:47.346Z,3.83
2019-03-03T07:44:16.539Z,3.80
2019-03-03T07:46:45.773Z,4.10
2019-03-03T07:49:14.982Z,3.98
2019-03-03T07:51:44.156Z,4.03
2019-03-03T07:54:13.452Z,4.15
2019-03-03T07:56:42.650Z,4.17
2019-03-03T07:59:11.862Z,4.05
2019-03-03T08:01:41.088Z,4.03
2019-03-03T08:04:10.361Z,4.17
2019-03-03T08:06:39.560Z,4.17
2019-03-03T08:09:09.557Z,4.28
2019-03-03T08:11:38.804Z,4.20
2019-03-03T08:14:07.992Z,3.83
2019-03-03T08:16:37.326Z,4.30
2019-03-03T08:19:06.526Z,5.05
2019-03-03T08:21:35.789Z,4.70
2019-03-03T08:24:05.019Z,5.25
2019-03-03T08:26:34.213Z,4.40
2019-03-03T08:29:03.489Z,4.72
2019-03-03T08:31:32.679Z,4.78
2019-03-03T08:34:01.871Z,5.20
2019-03-03T08:36:31.246Z,4.12
2019-03-03T08:39:00.381Z,4.85
2019-03-03T08:41:29.996Z,4.78
2019-03-03T08:44:06.845Z,5.28
2019-03-03T08:46:54.991Z,5.70
2019-03-03T08:49:35.555Z,4.92
2019-03-03T08:52:29.725Z,4.58
2019-03-03T08:55:15.114Z,5.72
2019-03-03T08:58:02.055Z,5.17
2019-03-03T09:00:54.324Z,5.55
2019-03-03T09:03:51.760Z,5.45
2019-03-03T09:06:29.731Z,5.53
2019-03-03T09:09:16.779Z,5.62
2019-03-03T09:12:07.925Z,6.22
2019-03-03T09:14:54.565Z,5.60
2019-03-03T09:17:45.558Z,4.97
2019-03-03T09:20:32.458Z,5.62
2019-03-03T09:23:39.042Z,5.85
2019-03-03T09:26:26.110Z,5.72
2019-03-03T09:29:23.214Z,6.15
2019-03-03T09:32:08.268Z,4.90
2019-03-03T09:34:56.452Z,5.65
2019-03-03T09:37:50.568Z,5.53
2019-03-03T09:40:28.617Z,5.50
2019-03-03T09:43:31.820Z,5.28
2019-03-03T09:46:26.745Z,5.70
2019-03-03T09:49:09.743Z,4.78
2019-03-03T09:51:48.387Z,5.40
2019-03-03T09:54:28.813Z,4.15
2019-03-03T09:57:22.980Z,5.10
2019-03-03T10:00:02.741Z,4.42
2019-03-03T10:02:46.919Z,4.72
2019-03-03T10:05:41.656Z,4.83
2019-03-03T10:08:25.766Z,4.33
2019-03-03T10:11:06.813Z,3.90
2019-03-03T10:13:57.784Z,4.40
2019-03-03T10:16:42.579Z,3.98
2019-03-03T10:19:36.802Z,3.90
2019-03-03T10:22:26.496Z,4.97
2019-03-03T10:25:13.223Z,4.50
2019-03-03T10:28:00.898Z,4.72
2019-03-03T10:30:45.841Z,3.60
2019-03-03T10:33:28.662Z,5.12
2019-03-03T10:36:31.851Z,4.10
2019-03-03T10:39:18.414Z,3.92
2019-03-03T10:42:07.684Z,3.45
2019-03-03T10:44:58.699Z,3.70
2019-03-03T10:47:40.050Z,3.17
2019-03-03T10:50:31.595Z,3.25
2019-03-03T10:53:19.943Z,3.62
2019-03-03T10:56:27.245Z,3.00
2019-03-03T10:59:27.870Z,3.67
2019-03-03T11:02:06.639Z,3.50
2019-03-03T11:05:10.584Z,3.60
2019-03-03T11:08:13.691Z,3.72
2019-03-03T11:11:03.323Z,3.65
2019-03-03T11:13:50.813Z,3.08
2019-03-03T11:16:38.145Z,3.50
2019-03-03T11:19:44.428Z,3.65
2019-03-03T11:22:25.876Z,3.47
2019-03-03T11:25:20.438Z,3.40
2019-03-03T11:28:07.168Z,2.97
2019-03-03T11:30:49.367Z,3.35
2019-03-03T11:33:40.626Z,3.20
2019-03-03T11:36:28.869Z,3.08
2019-03-03T11:39:08.055Z,2.90
2019-03-03T11:41:44.514Z,2.60
2019-03-03T11:44:44.826Z,2.83
2019-03-03T11:47:48.258Z,2.27
2019-03-03T11:50:35.187Z,2.50
2019-03-03T11:53:24.966Z,2.60
2019-03-03T11:56:22.379Z,2.85
2019-03-03T11:59:09.486Z,2.65
2019-03-03T12:01:57.061Z,2.40
2019-03-03T12:04:45.327Z,3.15
2019-03-03T12:07:36.772Z,2.60
2019-03-03T12:10:28.720Z,2.25
2019-03-03T12:13:07.381Z,2.90
2019-03-03T12:16:01.689Z,2.75
2019-03-03T12:18:49.845Z,2.20
2019-03-03T12:21:36.950Z,2.70
2019-03-03T12:24:19.438Z,2.12
2019-03-03T12:27:22.621Z,1.80
2019-03-03T12:30:15.411Z,2.05
2019-03-03T12:33:00.251Z,2.02
2019-03-03T12:35:36.967Z,3.10
2019-03-03T12:38:19.787Z,1.85
2019-03-03T12:41:09.313Z,3.37
2019-03-03T12:44:07.003Z,3.30
2019-03-03T12:46:52.589Z,2.30
2019-03-03T12:49:38.688Z,8.45
2019-03-03T12:52:33.021Z,2.10
2019-03-03T12:55:39.588Z,1.60
2019-03-03T12:58:33.419Z,2.87
2019-03-03T13:01:20.184Z,1.82
2019-03-03T13:03:58.446Z,1.85
2019-03-03T13:06:49.442Z,1.45
2019-03-03T13:09:26.134Z,1.75
2019-03-03T13:12:07.107Z,1.60
2019-03-03T13:14:56.384Z,1.50
2019-03-03T13:17:50.743Z,2.02
2019-03-03T13:20:36.218Z,1.60
2019-03-03T13:23:27.831Z,1.72
2019-03-03T13:26:16.097Z,1.57
2019-03-03T13:29:02.990Z,1.37
2019-03-03T13:31:45.564Z,1.70
2019-03-03T13:34:33.858Z,1.30
2019-03-03T13:37:12.607Z,1.62
2019-03-03T13:40:06.164Z,1.47
2019-03-03T13:42:47.145Z,1.50
2019-03-03T13:45:16.771Z,1.47
2019-03-03T13:47:46.085Z,1.70
2019-03-03T13:50:16.947Z,1.47
2019-03-03T13:52:46.429Z,1.62
2019-03-03T13:55:16.538Z,1.60
2019-03-03T13:57:45.920Z,1.90
2019-03-03T14:00:20.139Z,1.85
2019-03-03T14:02:50.291Z,1.77
2019-03-03T14:05:21.546Z,1.45
2019-03-03T14:07:51.057Z,1.55
2019-03-03T14:10:20.455Z,1.72
2019-03-03T14:12:49.823Z,1.50
2019-03-03T14:15:19.829Z,1.37
2019-03-03T14:17:49.320Z,1.50
2019-03-03T14:20:20.650Z,1.45
2019-03-03T14:22:50.028Z,1.60
2019-03-03T14:25:19.629Z,2.00
2019-03-03T14:27:49.051Z,1.52
2019-03-03T14:30:20.425Z,2.00
2019-03-03T14:32:49.869Z,1.67
2019-03-03T14:35:19.691Z,1.60
2019-03-03T14:37:48.948Z,3.35
2019-03-03T14:40:19.076Z,3.42
2019-03-03T14:42:48.474Z,2.40
2019-03-03T14:45:17.937Z,4.00
2019-03-03T14:47:47.381Z,2.30
2019-03-03T14:50:17.645Z,2.45
2019-03-03T14:52:48.527Z,1.95
2019-03-03T14:55:19.058Z,2.33
2019-03-03T14:57:49.824Z,2.05
2019-03-03T15:00:26.004Z,1.50
2019-03-03T15:02:55.543Z,1.92
2019-03-03T15:05:24.778Z,3.22
2019-03-03T15:07:54.037Z,2.92
2019-03-03T15:10:23.369Z,3.70
2019-03-03T15:12:52.709Z,2.00
2019-03-03T15:15:22.743Z,1.95
2019-03-03T15:17:52.134Z,2.60
2019-03-03T15:20:21.589Z,2.30
2019-03-03T15:22:50.897Z,2.10
2019-03-03T15:25:20.150Z,2.35
2019-03-03T15:27:49.690Z,2.98
2019-03-03T15:30:20.117Z,2.50
2019-03-03T15:32:49.789Z,2.10
2019-03-03T15:35:19.283Z,2.90
2019-03-03T15:37:48.746Z,2.85
2019-03-03T15:40:18.988Z,2.37
2019-03-03T15:42:48.461Z,2.62
2019-03-03T15:45:19.508Z,3.27
2019-03-03T15:47:48.854Z,3.77
2019-03-03T15:50:19.603Z,3.15
2019-03-03T15:52:49.339Z,2.40
2019-03-03T15:55:18.590Z,1.70
2019-03-03T15:57:48.000Z,2.05
2019-03-03T16:00:22.827Z,2.37
2019-03-03T16:02:52.081Z,2.52
2019-03-03T16:05:22.261Z,2.50
2019-03-03T16:07:51.635Z,2.95
2019-03-03T16:10:21.107Z,2.90
2019-03-03T16:12:50.566Z,2.40
2019-03-03T16:15:19.843Z,2.62
2019-03-03T16:17:49.416Z,2.37
2019-03-03T16:20:19.447Z,2.70
2019-03-03T16:22:48.757Z,2.98
2019-03-03T16:25:19.467Z,3.25
2019-03-03T16:27:49.382Z,3.00
2019-03-03T16:30:19.888Z,2.90
2019-03-03T16:32:49.433Z,3.17
2019-03-03T16:35:19.228Z,2.95
2019-03-03T16:37:48.693Z,3.17
2019-03-03T16:40:20.043Z,3.15
2019-03-03T16:42:49.474Z,2.90
2019-03-03T16:45:19.543Z,2.98
2019-03-03T16:47:48.897Z,3.05
2019-03-03T16:50:18.770Z,3.05
2019-03-03T16:52:49.301Z,3.00
2019-03-03T16:55:18.884Z,2.87
2019-03-03T16:57:48.997Z,3.83
2019-03-03T17:00:20.106Z,3.27
2019-03-03T17:02:49.495Z,6.40
2019-03-03T17:05:19.640Z,4.00
2019-03-03T17:07:49.381Z,4.62
2019-03-03T17:10:38.066Z,3.75
2019-03-03T17:13:07.344Z,3.33
2019-03-03T17:15:36.703Z,3.08
2019-03-03T17:18:06.195Z,3.37
2019-03-03T17:20:36.480Z,3.35
2019-03-03T17:23:06.323Z,2.95
2019-03-03T17:25:36.611Z,3.50
2019-03-03T17:28:06.824Z,4.03
2019-03-03T17:30:36.680Z,3.45
2019-03-03T17:33:06.550Z,3.77
2019-03-03T17:35:36.319Z,3.77
2019-03-03T17:38:08.690Z,3.50
2019-03-03T17:40:38.576Z,3.87
2019-03-03T17:43:07.998Z,3.60
2019-03-03T17:45:37.419Z,5.80
2019-03-03T17:48:06.707Z,2.62
2019-03-03T17:50:36.063Z,3.15
2019-03-03T17:53:05.591Z,3.45
2019-03-03T17:55:34.880Z,3.58
2019-03-03T17:58:05.095Z,2.77
2019-03-03T18:00:36.528Z,3.10
2019-03-03T18:03:06.611Z,3.67
2019-03-03T18:05:36.044Z,2.90
2019-03-03T18:08:05.617Z,3.22
2019-03-03T18:10:34.964Z,2.60
2019-03-03T18:13:04.360Z,3.17
2019-03-03T18:15:33.883Z,3.60
2019-03-03T18:18:03.824Z,3.40
2019-03-03T18:20:33.313Z,2.85
2019-03-03T18:23:03.041Z,2.90
2019-03-03T18:25:32.315Z,3.10
2019-03-03T18:28:01.704Z,3.50
2019-03-03T18:30:30.933Z,3.37
2019-03-03T18:33:00.370Z,3.10
2019-03-03T18:35:29.787Z,3.22
2019-03-03T18:37:59.886Z,3.33
2019-03-03T18:40:29.378Z,3.10
2019-03-03T18:42:58.709Z,3.67
2019-03-03T18:45:28.882Z,5.33
2019-03-03T18:47:58.204Z,3.83
2019-03-03T18:50:29.413Z,3.37
2019-03-03T18:52:59.901Z,3.55
2019-03-03T18:55:30.464Z,3.70
2019-03-03T18:58:00.486Z,3.77
2019-03-03T19:00:30.529Z,3.70
2019-03-03T19:02:59.809Z,3.50
2019-03-03T19:05:29.573Z,3.60
2019-03-03T19:07:58.990Z,4.53
2019-03-03T19:10:28.707Z,4.15
2019-03-03T19:12:58.423Z,3.80
2019-03-03T19:15:28.391Z,3.83
2019-03-03T19:17:57.988Z,3.60
2019-03-03T19:20:28.348Z,3.95
2019-03-03T19:22:58.159Z,4.05
2019-03-03T19:25:27.986Z,3.80
2019-03-03T19:27:59.396Z,4.62
2019-03-03T19:30:31.372Z,4.70
2019-03-03T19:33:05.249Z,4.30
2019-03-03T19:35:34.805Z,4.07
2019-03-03T19:38:04.397Z,5.10
2019-03-03T19:40:34.206Z,4.47
2019-03-03T19:43:03.931Z,4.00
2019-03-03T19:45:34.452Z,4.97
2019-03-03T19:48:04.002Z,4.15
2019-03-03T19:50:34.446Z,4.58
2019-03-03T19:53:05.034Z,5.05
2019-03-03T19:55:35.418Z,3.65
2019-03-03T19:58:06.581Z,5.00
2019-03-03T20:00:39.082Z,3.65
2019-03-03T20:03:09.425Z,3.95
2019-03-03T20:05:40.827Z,3.92
2019-03-03T20:08:13.004Z,3.72
2019-03-03T20:10:42.601Z,4.30
2019-03-03T20:13:13.375Z,3.75
2019-03-03T20:15:43.356Z,4.03
2019-03-03T20:18:13.265Z,3.40
2019-03-03T20:20:43.441Z,3.50
2019-03-03T20:23:13.097Z,4.05
2019-03-03T20:25:42.800Z,4.78
2019-03-03T20:28:12.874Z,3.85
2019-03-03T20:30:43.330Z,4.20
2019-03-03T20:33:13.235Z,4.70
2019-03-03T20:35:42.857Z,3.40
2019-03-03T20:38:12.358Z,3.72
2019-03-03T20:40:42.081Z,3.52
2019-03-03T20:43:11.950Z,4.20
2019-03-03T20:45:41.843Z,4.15
2019-03-03T20:48:11.520Z,3.60
2019-03-03T20:50:41.150Z,4.53
2019-03-03T20:53:11.551Z,3.87
2019-03-03T20:55:41.033Z,4.50
2019-03-03T20:58:10.442Z,4.20
2019-03-03T21:00:40.275Z,5.40
2019-03-03T21:03:10.195Z,4.12
2019-03-03T21:05:39.889Z,4.50
2019-03-03T21:08:09.354Z,4.17
2019-03-03T21:10:39.375Z,3.60
2019-03-03T21:13:08.939Z,4.28
2019-03-03T21:15:38.663Z,4.12
2019-03-03T21:18:08.275Z,4.17
2019-03-03T21:20:38.023Z,4.50
2019-03-03T21:23:07.338Z,3.55
2019-03-03T21:25:36.671Z,5.87
2019-03-03T21:28:05.872Z,7.78
2019-03-03T21:30:35.525Z,4.65
2019-03-03T21:33:05.134Z,4.08
2019-03-03T21:35:34.596Z,4.25
2019-03-03T21:38:04.076Z,4.22
2019-03-03T21:40:33.372Z,3.80
2019-03-03T21:43:02.662Z,4.03
2019-03-03T21:45:32.170Z,4.05
2019-03-03T21:48:01.474Z,4.20
2019-03-03T21:50:30.715Z,3.95
2019-03-03T21:52:59.950Z,4.53
2019-03-03T21:55:29.268Z,4.15
2019-03-03T21:57:58.487Z,3.87
2019-03-03T22:00:32.718Z,4.25
2019-03-03T22:03:01.947Z,3.85
2019-03-03T22:05:31.228Z,4.45
2019-03-03T22:08:00.465Z,3.62
2019-03-03T22:10:30.152Z,3.92
2019-03-03T22:13:01.509Z,3.95
2019-03-03T22:15:30.762Z,4.50
2019-03-03T22:18:00.094Z,3.80
2019-03-03T22:20:29.306Z,3.35
2019-03-03T22:22:58.540Z,3.92
2019-03-03T22:25:27.885Z,4.05
2019-03-03T22:27:57.136Z,3.50
2019-03-03T22:30:26.441Z,3.50
2019-03-03T22:32:55.659Z,4.22
2019-03-03T22:35:25.175Z,4.20
2019-03-03T22:37:54.403Z,3.30
2019-03-03T22:40:24.325Z,3.60
2019-03-03T22:42:53.557Z,3.47
2019-03-03T22:45:23.237Z,3.50
2019-03-03T22:47:52.562Z,3.15
2019-03-03T22:50:22.014Z,3.00
2019-03-03T22:52:51.232Z,2.90
2019-03-03T22:55:20.892Z,2.67
2019-03-03T22:57:50.110Z,3.22
2019-03-03T23:00:55.000Z,3.10
2019-03-03T23:03:56.920Z,3.20
2019-03-03T23:06:57.048Z,3.00
2019-03-03T23:10:05.613Z,2.85
2019-03-03T23:12:56.436Z,3.10
2019-03-03T23:16:00.389Z,2.62
2019-03-03T23:19:31.435Z,2.60
2019-03-03T23:22:59.571Z,3.25
2019-03-03T23:25:52.299Z,2.98
2019-03-03T23:28:22.571Z,2.90
2019-03-03T23:30:52.759Z,3.17
2019-03-03T23:33:21.969Z,2.83
2019-03-03T23:35:51.328Z,4.50
2019-03-03T23:38:20.549Z,2.90
2019-03-03T23:40:49.747Z,3.00
2019-03-03T23:43:19.371Z,6.17
2019-03-03T23:45:48.591Z,2.60
2019-03-03T23:48:17.801Z,3.37
2019-03-03T23:50:47.075Z,3.58
2019-03-03T23:53:16.282Z,2.72
2019-03-03T23:55:45.505Z,2.87
2019-03-03T23:58:14.759Z,2.70
